Time;durP1;ratioP1;P1;durP2;ratioP2;P2;SDS_P1;SDS_P2;PMS_P1;PMS_P2;Temp;Humidity;BMP_temperature;BMP_pressure;BME280_temperature;BME280_humidity;BME280_pressure;Samples;Min_cycle;Max_cycle;Signal;HPM_P1;HPM_P2
2021/07/26 00:01:42;;;;;;;15.47;9.90;;;19.30;99.90;;;;;;5140973;27;20193;-75
2021/07/26 00:04:31;;;;;;;17.67;9.87;;;19.30;99.90;;;;;;5140377;27;20591;-73
2021/07/26 00:07:19;;;;;;;14.13;9.83;;;19.30;99.90;;;;;;5148279;27;20659;-74
2021/07/26 00:10:08;;;;;;;16.23;10.57;;;19.30;99.90;;;;;;5134884;27;20231;-74
2021/07/26 00:12:55;;;;;;;20.33;10.00;;;19.20;99.90;;;;;;5132325;27;20216;-74
2021/07/26 00:15:43;;;;;;;15.17;9.47;;;19.10;99.90;;;;;;5140358;27;20289;-74
2021/07/26 00:18:31;;;;;;;15.00;9.40;;;19.00;99.90;;;;;;5142305;27;20276;-73
2021/07/26 00:21:20;;;;;;;14.53;9.07;;;18.90;99.90;;;;;;5143189;27;20279;-73
2021/07/26 00:24:08;;;;;;;16.93;9.40;;;18.80;99.90;;;;;;5142896;27;20242;-72
2021/07/26 00:26:55;;;;;;;12.70;8.83;;;18.70;99.90;;;;;;5141155;27;20204;-73
2021/07/26 00:29:43;;;;;;;14.70;9.13;;;18.60;99.90;;;;;;5130557;27;20209;-73
2021/07/26 00:32:30;;;;;;;11.87;8.77;;;18.50;99.90;;;;;;5143143;27;20213;-72
2021/07/26 00:35:18;;;;;;;12.17;8.40;;;18.40;99.90;;;;;;5130234;27;20642;-72
2021/07/26 00:38:07;;;;;;;14.30;9.80;;;18.30;99.90;;;;;;5142791;27;20200;-72
2021/07/26 00:40:55;;;;;;;16.67;10.10;;;18.20;99.90;;;;;;5138930;27;20210;-71
2021/07/26 00:43:43;;;;;;;14.23;9.80;;;18.10;99.90;;;;;;5148110;27;20208;-72
2021/07/26 00:46:31;;;;;;;18.33;10.07;;;18.10;99.90;;;;;;5144108;27;20223;-72
2021/07/26 00:49:18;;;;;;;17.60;10.73;;;18.00;99.90;;;;;;5137815;27;20197;-72
2021/07/26 00:52:06;;;;;;;16.50;10.27;;;18.00;99.90;;;;;;5144123;27;20660;-72
2021/07/26 00:54:55;;;;;;;18.00;10.97;;;18.00;99.90;;;;;;5142593;27;20232;-73
2021/07/26 00:57:43;;;;;;;15.90;10.90;;;18.10;99.90;;;;;;5146740;27;20556;-73
2021/07/26 01:00:30;;;;;;;16.87;10.70;;;18.10;99.90;;;;;;5143752;27;20201;-73
2021/07/26 01:03:18;;;;;;;15.23;10.17;;;18.10;99.90;;;;;;5135889;27;20212;-73
2021/07/26 01:06:06;;;;;;;16.13;10.10;;;18.10;99.90;;;;;;5136108;27;20205;-73
2021/07/26 01:08:53;;;;;;;15.83;10.43;;;18.10;99.90;;;;;;5144618;27;20203;-73
2021/07/26 01:11:42;;;;;;;15.67;10.20;;;18.10;99.90;;;;;;5133490;27;20197;-74
2021/07/26 01:14:30;;;;;;;14.13;9.53;;;18.10;99.90;;;;;;5133206;27;20630;-74
2021/07/26 01:17:45;;;;;;;15.33;9.47;;;18.10;99.90;;;;;;5132980;27;20287;-74
2021/07/26 01:20:34;;;;;;;14.87;9.53;;;18.10;99.90;;;;;;5107182;27;20208;-73
2021/07/26 01:23:21;;;;;;;14.37;9.60;;;18.10;99.90;;;;;;5151403;27;20224;-73
2021/07/26 01:26:10;;;;;;;15.47;8.83;;;18.10;99.90;;;;;;5137109;27;20257;-74
2021/07/26 01:28:58;;;;;;;13.97;8.00;;;18.10;99.90;;;;;;5144404;27;20198;-73
2021/07/26 01:31:46;;;;;;;11.67;8.33;;;18.00;99.90;;;;;;5140524;27;20585;-74
2021/07/26 01:34:35;;;;;;;9.63;7.27;;;18.10;99.90;;;;;;5146750;27;20196;-74
2021/07/26 01:37:24;;;;;;;11.33;7.23;;;18.00;99.90;;;;;;5143519;27;20211;-74
2021/07/26 01:40:13;;;;;;;10.50;7.37;;;18.00;99.90;;;;;;5143894;27;20199;-74
2021/07/26 01:43:02;;;;;;;9.30;6.53;;;18.00;99.90;;;;;;5139220;27;20671;-74
2021/07/26 01:45:59;;;;;;;9.20;6.90;;;18.00;99.90;;;;;;5144374;27;20223;-74
2021/07/26 01:48:50;;;;;;;10.13;6.53;;;18.00;99.90;;;;;;5142149;27;20277;-74
2021/07/26 01:51:40;;;;;;;10.50;6.70;;;18.00;99.90;;;;;;5143517;27;20200;-74
2021/07/26 01:54:29;;;;;;;8.87;7.03;;;18.00;99.90;;;;;;5132284;27;20230;-74
2021/07/26 01:57:16;;;;;;;12.73;7.30;;;18.00;99.90;;;;;;5149208;27;20188;-74
2021/07/26 02:00:05;;;;;;;12.13;7.40;;;18.00;99.90;;;;;;5133652;27;20270;-74
2021/07/26 02:02:53;;;;;;;13.93;8.60;;;18.00;99.90;;;;;;5149111;27;20259;-74
2021/07/26 02:05:40;;;;;;;14.63;9.17;;;17.90;99.90;;;;;;5141418;27;20218;-74
2021/07/26 02:08:28;;;;;;;13.17;9.47;;;17.90;99.90;;;;;;5136773;27;20257;-74
2021/07/26 02:11:16;;;;;;;14.13;9.67;;;17.90;99.90;;;;;;5149195;27;20232;-74
2021/07/26 02:14:09;;;;;;;16.40;9.47;;;17.90;99.90;;;;;;5144129;27;20220;-74
2021/07/26 02:16:56;;;;;;;14.20;9.73;;;17.90;99.90;;;;;;5145092;27;20232;-74
2021/07/26 02:19:44;;;;;;;14.97;9.77;;;17.90;99.90;;;;;;5139615;27;20235;-74
2021/07/26 02:22:32;;;;;;;16.60;10.77;;;17.90;99.90;;;;;;5147399;27;20547;-74
2021/07/26 02:25:20;;;;;;;16.57;11.40;;;17.90;99.90;;;;;;5135408;27;20220;-74
2021/07/26 02:28:10;;;;;;;20.23;12.20;;;17.90;99.90;;;;;;5134560;27;20758;-74
2021/07/26 02:30:57;;;;;;;17.40;12.33;;;17.90;99.90;;;;;;5145753;27;20252;-74
2021/07/26 02:33:45;;;;;;;16.03;12.33;;;17.80;99.90;;;;;;5140286;27;20247;-74
2021/07/26 02:36:32;;;;;;;20.87;12.90;;;17.80;99.90;;;;;;5134092;27;20267;-74
2021/07/26 02:39:20;;;;;;;18.07;11.90;;;17.90;99.90;;;;;;5147280;27;20688;-74
2021/07/26 02:42:10;;;;;;;18.97;11.93;;;17.90;99.90;;;;;;5145028;27;20200;-74
2021/07/26 02:45:00;;;;;;;17.60;11.23;;;17.80;99.90;;;;;;5132266;27;20680;-74
2021/07/26 02:47:47;;;;;;;18.67;11.80;;;17.90;99.90;;;;;;5136974;27;20617;-75
2021/07/26 02:50:35;;;;;;;18.57;11.87;;;17.80;99.90;;;;;;5143209;27;20196;-74
2021/07/26 02:53:23;;;;;;;17.23;11.77;;;17.80;99.90;;;;;;5140449;27;20593;-73
2021/07/26 02:56:10;;;;;;;19.03;12.53;;;17.80;99.90;;;;;;5136792;27;20222;-72
2021/07/26 02:58:58;;;;;;;16.20;11.40;;;17.80;99.90;;;;;;5143509;27;20201;-72
2021/07/26 03:01:48;;;;;;;15.77;11.93;;;17.80;99.90;;;;;;5135389;27;20725;-72
2021/07/26 03:04:36;;;;;;;15.67;11.00;;;17.80;99.90;;;;;;5133619;27;20225;-72
2021/07/26 03:07:24;;;;;;;14.03;10.17;;;17.80;99.90;;;;;;5143864;27;20287;-72
2021/07/26 03:10:12;;;;;;;16.60;11.97;;;17.70;99.90;;;;;;5133962;27;20200;-72
2021/07/26 03:13:00;;;;;;;15.27;10.60;;;17.70;99.90;;;;;;5142197;27;20303;-72
2021/07/26 03:16:13;;;;;;;18.50;11.03;;;17.70;99.90;;;;;;5151313;27;20191;-72
2021/07/26 03:19:02;;;;;;;13.67;10.33;;;17.70;99.90;;;;;;5148580;27;20611;-72
2021/07/26 03:22:33;;;;;;;16.33;10.67;;;17.70;99.90;;;;;;5143476;27;20208;-72
2021/07/26 03:25:21;;;;;;;17.97;10.83;;;17.80;99.90;;;;;;5134204;27;20205;-72
2021/07/26 03:28:08;;;;;;;16.87;11.70;;;17.70;99.90;;;;;;5134210;27;20281;-72
2021/07/26 03:30:56;;;;;;;17.60;11.27;;;17.70;99.90;;;;;;5138708;27;20740;-72
2021/07/26 03:33:44;;;;;;;15.53;11.70;;;17.70;99.90;;;;;;5140019;27;20196;-72
2021/07/26 03:36:33;;;;;;;19.97;11.30;;;17.70;99.90;;;;;;5141115;27;20208;-72
2021/07/26 03:39:21;;;;;;;15.17;11.07;;;17.70;99.90;;;;;;5139460;27;20665;-73
2021/07/26 03:42:09;;;;;;;14.27;10.67;;;17.70;99.90;;;;;;5141850;27;20204;-72
2021/07/26 03:44:57;;;;;;;14.40;9.80;;;17.70;99.90;;;;;;5131751;27;20215;-72
2021/07/26 03:47:44;;;;;;;13.23;9.60;;;17.70;99.90;;;;;;5139928;27;20351;-72
2021/07/26 03:50:32;;;;;;;19.93;10.00;;;17.70;99.90;;;;;;5131946;27;20695;-72
2021/07/26 03:53:21;;;;;;;12.60;9.93;;;17.70;99.90;;;;;;5129859;27;20585;-72
2021/07/26 03:56:08;;;;;;;13.27;9.37;;;17.70;99.90;;;;;;5139911;27;20188;-72
2021/07/26 03:58:56;;;;;;;11.13;9.00;;;17.80;99.90;;;;;;5140394;27;20211;-72
2021/07/26 04:01:44;;;;;;;14.07;9.00;;;17.80;99.90;;;;;;5136456;27;20202;-72
2021/07/26 04:04:31;;;;;;;13.83;9.43;;;17.90;99.90;;;;;;5141552;27;20224;-72
2021/07/26 04:07:23;;;;;;;10.37;8.97;;;17.90;99.90;;;;;;5139377;27;20648;-72
2021/07/26 04:10:14;;;;;;;11.50;8.30;;;17.90;99.90;;;;;;5138546;27;20203;-72
2021/07/26 04:13:02;;;;;;;16.27;9.20;;;17.90;99.90;;;;;;5144792;27;20614;-72
2021/07/26 04:15:50;;;;;;;15.33;8.93;;;18.00;99.90;;;;;;5149311;27;20204;-72
2021/07/26 04:18:38;;;;;;;14.20;8.37;;;18.00;99.90;;;;;;5148353;27;20577;-72
2021/07/26 04:21:29;;;;;;;10.70;7.53;;;18.10;99.90;;;;;;5146546;27;20638;-72
2021/07/26 04:24:17;;;;;;;12.27;8.13;;;18.10;99.90;;;;;;5146181;27;20631;-72
2021/07/26 04:27:06;;;;;;;13.20;8.13;;;18.20;99.90;;;;;;5148427;27;20199;-72
2021/07/26 04:29:54;;;;;;;9.60;7.47;;;18.30;99.90;;;;;;5141961;27;20567;-72
2021/07/26 04:32:43;;;;;;;12.57;7.53;;;18.30;99.90;;;;;;5145463;27;20201;-72
2021/07/26 04:35:30;;;;;;;9.97;6.93;;;18.40;99.90;;;;;;5142380;27;20216;-72
2021/07/26 04:38:18;;;;;;;13.03;7.80;;;18.50;99.90;;;;;;5144658;27;20207;-72
2021/07/26 04:41:06;;;;;;;9.57;7.27;;;18.60;99.90;;;;;;5148593;27;20197;-72
2021/07/26 04:43:55;;;;;;;10.47;7.53;;;18.60;99.90;;;;;;5152467;27;20200;-72
2021/07/26 04:46:42;;;;;;;10.23;7.47;;;18.60;99.90;;;;;;5153778;27;20247;-72
2021/07/26 04:49:35;;;;;;;9.17;6.87;;;18.50;99.90;;;;;;5144946;27;20197;-72
2021/07/26 04:52:24;;;;;;;11.97;7.43;;;18.60;99.90;;;;;;5144312;27;20205;-72
2021/07/26 04:55:19;;;;;;;10.83;7.63;;;18.60;99.90;;;;;;5143889;27;20755;-72
2021/07/26 04:58:10;;;;;;;11.57;8.30;;;18.60;99.90;;;;;;5141240;27;20203;-72
2021/07/26 05:01:01;;;;;;;12.73;8.87;;;18.60;99.90;;;;;;5143069;27;20344;-72
2021/07/26 05:03:56;;;;;;;12.30;8.70;;;18.70;99.90;;;;;;5145625;27;20281;-72
2021/07/26 05:06:45;;;;;;;13.13;9.27;;;18.80;99.90;;;;;;5144807;27;20205;-72
2021/07/26 05:09:38;;;;;;;14.43;10.20;;;18.80;99.90;;;;;;5134550;27;20556;-72
2021/07/26 05:12:34;;;;;;;15.33;10.57;;;18.80;99.90;;;;;;5143848;27;20205;-72
2021/07/26 05:15:27;;;;;;;13.67;10.43;;;18.80;99.90;;;;;;5143309;27;20189;-72
2021/07/26 05:18:16;;;;;;;15.30;11.03;;;18.80;99.90;;;;;;5142160;27;20197;-72
2021/07/26 05:21:04;;;;;;;15.63;10.23;;;19.00;99.90;;;;;;5134593;27;20198;-72
2021/07/26 05:23:52;;;;;;;12.93;9.57;;;19.20;99.90;;;;;;5143117;27;20190;-72
2021/07/26 05:26:39;;;;;;;11.27;8.37;;;19.30;99.90;;;;;;5137922;27;20222;-72
2021/07/26 05:29:40;;;;;;;11.63;8.50;;;19.30;99.90;;;;;;5142842;27;20281;-72
2021/07/26 05:32:29;;;;;;;12.23;7.83;;;19.30;99.90;;;;;;5149449;27;20198;-72
2021/07/26 05:35:30;;;;;;;12.13;8.13;;;19.40;99.90;;;;;;5142482;27;20341;-72
2021/07/26 05:38:22;;;;;;;9.47;7.60;;;19.50;99.90;;;;;;5146623;27;20253;-72
2021/07/26 05:41:14;;;;;;;10.37;8.23;;;19.50;99.90;;;;;;5150081;27;20220;-72
2021/07/26 05:44:07;;;;;;;10.27;7.83;;;19.60;99.90;;;;;;5136881;27;20281;-71
2021/07/26 05:46:59;;;;;;;16.37;7.80;;;19.80;99.90;;;;;;5138013;27;20891;-72
2021/07/26 05:49:47;;;;;;;9.87;7.23;;;20.00;99.90;;;;;;5144859;27;20288;-72
2021/07/26 05:52:36;;;;;;;9.13;7.37;;;20.20;99.90;;;;;;5145791;27;20638;-72
2021/07/26 05:55:24;;;;;;;11.37;7.37;;;20.40;99.90;;;;;;5139289;27;20205;-72
2021/07/26 05:58:12;;;;;;;9.33;7.07;;;20.60;99.90;;;;;;5135714;27;20202;-72
2021/07/26 06:01:10;;;;;;;11.23;7.43;;;20.80;99.90;;;;;;5142647;27;20706;-72
2021/07/26 06:03:57;;;;;;;10.00;7.07;;;20.90;99.90;;;;;;5142142;27;20658;-72
2021/07/26 06:06:45;;;;;;;8.33;5.47;;;21.00;99.90;;;;;;5137253;27;20214;-72
2021/07/26 06:09:34;;;;;;;9.17;5.83;;;21.10;99.90;;;;;;5135317;27;20194;-72
2021/07/26 06:12:23;;;;;;;9.23;5.80;;;21.20;99.90;;;;;;5137884;27;20198;-72
2021/07/26 06:15:11;;;;;;;11.00;6.40;;;21.10;99.90;;;;;;5146623;27;20851;-72
2021/07/26 06:17:59;;;;;;;8.80;5.13;;;20.90;99.90;;;;;;5144345;27;20206;-72
2021/07/26 06:20:46;;;;;;;8.83;5.63;;;20.80;99.90;;;;;;5135165;27;20212;-72
2021/07/26 06:23:34;;;;;;;6.83;5.00;;;20.60;99.90;;;;;;5141551;27;20195;-72
2021/07/26 06:26:23;;;;;;;7.03;5.30;;;20.40;99.90;;;;;;5144973;27;20217;-72
2021/07/26 06:29:11;;;;;;;7.77;5.47;;;20.40;99.90;;;;;;5140903;27;20226;-67
2021/07/26 06:31:59;;;;;;;10.87;5.17;;;20.40;99.90;;;;;;5133006;27;20203;-67
2021/07/26 06:34:46;;;;;;;9.93;6.03;;;20.40;99.90;;;;;;5141462;27;20209;-67
2021/07/26 06:37:34;;;;;;;9.27;5.43;;;20.40;99.90;;;;;;5143209;27;20202;-67
2021/07/26 06:40:21;;;;;;;8.40;6.13;;;20.50;99.90;;;;;;5143398;27;20537;-67
2021/07/26 06:43:10;;;;;;;9.37;5.50;;;20.80;99.90;;;;;;5149922;27;20313;-67
2021/07/26 06:45:58;;;;;;;11.20;5.67;;;20.90;99.90;;;;;;5132315;27;20590;-67
2021/07/26 06:48:45;;;;;;;8.80;5.30;;;21.20;99.90;;;;;;5132219;27;20199;-67
2021/07/26 06:51:33;;;;;;;8.83;5.17;;;21.40;99.90;;;;;;5132101;27;20356;-67
2021/07/26 06:54:21;;;;;;;8.67;5.00;;;21.70;99.90;;;;;;5133714;27;20229;-67
2021/07/26 06:57:08;;;;;;;7.47;4.67;;;21.90;99.90;;;;;;5140539;27;20315;-67
2021/07/26 06:59:58;;;;;;;7.53;5.00;;;21.60;99.90;;;;;;5133682;27;20234;-67
2021/07/26 07:02:46;;;;;;;5.37;4.20;;;21.50;99.90;;;;;;5129391;27;20202;-66
2021/07/26 07:05:34;;;;;;;7.37;5.20;;;21.40;99.90;;;;;;5135823;27;20552;-67
2021/07/26 07:08:22;;;;;;;6.70;5.10;;;21.50;99.90;;;;;;5138249;27;20205;-67
2021/07/26 07:11:10;;;;;;;7.80;5.20;;;21.60;99.90;;;;;;5149866;27;20743;-66
2021/07/26 07:13:58;;;;;;;6.83;5.20;;;21.90;99.90;;;;;;5139676;27;20209;-67
2021/07/26 07:16:47;;;;;;;6.97;4.83;;;22.00;99.90;;;;;;5139885;27;20234;-67
2021/07/26 07:19:38;;;;;;;5.90;4.80;;;22.20;99.90;;;;;;5145224;27;20534;-67
2021/07/26 07:22:26;;;;;;;7.73;5.27;;;22.30;99.90;;;;;;5132363;27;20205;-66
2021/07/26 07:25:14;;;;;;;8.60;5.87;;;22.10;99.90;;;;;;5146634;27;20364;-66
2021/07/26 07:28:01;;;;;;;9.40;4.80;;;21.90;99.90;;;;;;5150862;27;20202;-67
2021/07/26 07:30:49;;;;;;;9.07;4.97;;;21.60;99.90;;;;;;5144664;27;20206;-67
2021/07/26 07:33:39;;;;;;;10.27;5.13;;;21.40;99.90;;;;;;5132136;27;20198;-66
2021/07/26 07:36:26;;;;;;;7.63;5.07;;;21.30;99.90;;;;;;5145238;27;20286;-67
2021/07/26 07:39:14;;;;;;;7.43;4.90;;;21.50;99.90;;;;;;5152216;27;20679;-67
2021/07/26 07:42:02;;;;;;;6.27;4.50;;;21.70;99.90;;;;;;5152171;27;20276;-66
2021/07/26 07:44:49;;;;;;;6.03;3.90;;;22.10;99.90;;;;;;5152184;27;20208;-67
2021/07/26 07:47:38;;;;;;;11.13;4.40;;;22.30;99.90;;;;;;5145243;27;20695;-67
2021/07/26 07:51:18;;;;;;;6.00;4.30;;;22.60;99.90;;;;;;5145482;27;20203;-67
2021/07/26 07:54:08;;;;;;;6.43;4.17;;;22.80;99.90;;;;;;5144868;27;20237;-67
2021/07/26 07:56:55;;;;;;;4.63;3.70;;;22.80;99.90;;;;;;5146091;27;20201;-66
2021/07/26 07:59:44;;;;;;;6.50;4.23;;;22.90;99.90;;;;;;5138013;27;20232;-67
2021/07/26 08:02:32;;;;;;;6.90;3.60;;;22.70;99.90;;;;;;5145367;27;20194;-67
2021/07/26 08:05:19;;;;;;;5.97;3.77;;;22.60;99.90;;;;;;5137600;27;20286;-67
2021/07/26 08:08:08;;;;;;;4.90;3.27;;;23.00;99.90;;;;;;5143899;27;20206;-67
2021/07/26 08:10:57;;;;;;;5.77;4.13;;;23.00;99.90;;;;;;5135535;27;20206;-67
2021/07/26 08:13:45;;;;;;;5.57;4.20;;;22.90;99.90;;;;;;5135491;27;20186;-67
2021/07/26 08:16:33;;;;;;;5.97;4.03;;;23.10;99.90;;;;;;5134024;27;20202;-66
2021/07/26 08:19:20;;;;;;;4.83;3.30;;;23.30;99.90;;;;;;5146658;27;20346;-66
2021/07/26 08:22:08;;;;;;;4.70;3.70;;;23.30;99.90;;;;;;5155628;27;20660;-66
2021/07/26 08:24:55;;;;;;;5.23;3.20;;;23.00;99.90;;;;;;5155471;27;20204;-67
2021/07/26 08:27:51;;;;;;;4.73;3.27;;;23.20;99.90;;;;;;5155703;27;20224;-67
2021/07/26 08:30:39;;;;;;;4.93;2.80;;;23.30;99.90;;;;;;5155579;27;20208;-67
2021/07/26 08:33:26;;;;;;;4.50;3.47;;;22.80;99.90;;;;;;5156042;27;20733;-67
2021/07/26 08:36:14;;;;;;;7.90;4.03;;;22.50;99.90;;;;;;5154101;27;20221;-67
2021/07/26 08:39:08;;;;;;;5.80;3.80;;;22.50;99.90;;;;;;5145696;27;20208;-66
2021/07/26 08:41:59;;;;;;;6.93;4.07;;;22.30;99.90;;;;;;5137117;27;20194;-67
2021/07/26 08:44:49;;;;;;;8.53;3.83;;;22.30;99.90;;;;;;5150329;27;20198;-66
2021/07/26 08:47:39;;;;;;;6.27;4.00;;;22.20;99.90;;;;;;5135906;27;20233;-66
2021/07/26 08:50:27;;;;;;;7.57;3.47;;;22.30;99.90;;;;;;5145500;27;20208;-67
2021/07/26 08:53:14;;;;;;;6.10;3.13;;;22.30;99.90;;;;;;5138608;27;20383;-66
2021/07/26 08:56:02;;;;;;;6.87;3.10;;;22.40;99.90;;;;;;5155548;27;20229;-66
2021/07/26 08:58:50;;;;;;;6.73;3.07;;;22.50;99.90;;;;;;5133082;27;20322;-67
2021/07/26 09:01:43;;;;;;;6.90;3.50;;;22.70;99.90;;;;;;5134572;27;20221;-66
2021/07/26 09:04:31;;;;;;;4.73;2.90;;;22.70;99.90;;;;;;5139706;27;20736;-67
2021/07/26 09:07:28;;;;;;;5.63;3.40;;;23.20;99.90;;;;;;5133985;27;20214;-66
2021/07/26 09:10:20;;;;;;;7.43;3.03;;;23.90;99.90;;;;;;5152006;27;20202;-66
2021/07/26 09:13:12;;;;;;;4.80;2.57;;;24.20;99.90;;;;;;5155751;27;20198;-67
2021/07/26 09:16:17;;;;;;;4.17;2.80;;;24.50;99.90;;;;;;5154845;27;20205;-66
2021/07/26 09:19:07;;;;;;;5.27;3.07;;;24.40;99.90;;;;;;5155687;27;20322;-67
2021/07/26 09:21:56;;;;;;;5.87;2.87;;;24.10;99.90;;;;;;5142258;27;20281;-67
2021/07/26 09:24:43;;;;;;;4.27;2.70;;;24.00;99.90;;;;;;5134864;27;20202;-67
2021/07/26 09:27:31;;;;;;;4.45;2.80;;;24.30;99.90;;;;;;5133495;27;20693;-66
2021/07/26 09:30:19;;;;;;;4.55;2.90;;;24.50;99.90;;;;;;5133398;27;20245;-66
2021/07/26 09:33:16;;;;;;;7.70;2.88;;;24.30;99.90;;;;;;5133579;27;20199;-67
2021/07/26 09:36:10;;;;;;;5.03;2.60;;;24.30;99.90;;;;;;5133445;27;20201;-67
2021/07/26 09:38:58;;;;;;;4.57;2.77;;;24.50;99.90;;;;;;5132829;27;20210;-67
2021/07/26 09:41:48;;;;;;;2.85;2.55;;;24.30;99.90;;;;;;5134455;27;20205;-66
2021/07/26 09:44:35;;;;;;;4.97;2.70;;;23.70;99.90;;;;;;5133393;27;20324;-66
2021/07/26 09:47:23;;;;;;;5.27;2.87;;;23.50;99.90;;;;;;5133193;27;20315;-66
2021/07/26 09:50:15;;;;;;;6.70;3.20;;;23.30;99.90;;;;;;5133356;27;20213;-66
2021/07/26 09:53:14;;;;;;;6.90;3.00;;;23.30;99.90;;;;;;5133439;27;20239;-66
2021/07/26 09:56:15;;;;;;;6.23;3.27;;;23.20;99.90;;;;;;5134050;27;20191;-66
2021/07/26 09:59:03;;;;;;;6.93;3.23;;;23.30;99.90;;;;;;5145645;27;20198;-66
2021/07/26 10:01:51;;;;;;;5.87;2.80;;;23.50;99.90;;;;;;5153815;27;20270;-66
2021/07/26 10:04:39;;;;;;;9.90;3.47;;;24.00;99.90;;;;;;5153512;27;20201;-66
2021/07/26 10:07:26;;;;;;;4.50;3.28;;;24.20;99.90;;;;;;5153644;27;20218;-66
2021/07/26 10:10:16;;;;;;;7.43;3.35;;;24.40;99.90;;;;;;5153226;27;20355;-66
2021/07/26 10:13:04;;;;;;;5.93;3.05;;;24.80;99.90;;;;;;5153355;27;20656;-66
2021/07/26 10:15:52;;;;;;;3.58;2.60;;;24.70;99.90;;;;;;5154043;27;20832;-66
2021/07/26 10:18:42;;;;;;;8.03;3.07;;;24.80;99.90;;;;;;5153210;27;20687;-66
2021/07/26 10:21:30;;;;;;;5.00;3.30;;;25.00;99.90;;;;;;5143724;27;20198;-66
2021/07/26 10:24:18;;;;;;;5.13;3.28;;;25.40;99.90;;;;;;5140280;27;20305;-66
2021/07/26 10:27:11;;;;;;;6.63;3.55;;;25.60;99.90;;;;;;5139657;27;20214;-66
2021/07/26 10:29:59;;;;;;;4.72;3.13;;;25.70;99.90;;;;;;5142671;27;20206;-66
2021/07/26 10:32:46;;;;;;;5.65;3.42;;;25.50;99.90;;;;;;5137840;27;20209;-66
2021/07/26 10:35:36;;;;;;;4.45;3.53;;;25.50;99.90;;;;;;5133139;27;20291;-66
2021/07/26 10:39:00;;;;;;;5.65;3.38;;;26.00;99.90;;;;;;5132487;27;20210;-66
2021/07/26 10:42:04;;;;;;;8.88;3.30;;;26.70;99.90;;;;;;5132850;27;20202;-66
2021/07/26 10:44:53;;;;;;;7.30;2.95;;;26.50;99.90;;;;;;5147076;27;20201;-66
2021/07/26 10:47:41;;;;;;;4.47;3.13;;;26.00;99.90;;;;;;5148166;27;20226;-66
2021/07/26 10:50:35;;;;;;;9.10;3.38;;;25.60;99.90;;;;;;5136654;27;20206;-65
2021/07/26 10:53:58;;;;;;;7.05;3.50;;;25.40;99.90;;;;;;5133684;27;20234;-66
2021/07/26 10:57:08;;;;;;;6.20;3.22;;;25.70;99.90;;;;;;5142667;27;20221;-66
2021/07/26 11:00:20;;;;;;;5.55;3.42;;;26.20;99.90;;;;;;5134176;27;20203;-66
2021/07/26 11:03:15;;;;;;;6.72;3.25;;;26.30;99.90;;;;;;5143132;27;20206;-67
2021/07/26 11:06:02;;;;;;;6.05;3.38;;;26.70;99.90;;;;;;5151390;27;20198;-66
2021/07/26 11:08:50;;;;;;;4.57;3.67;;;27.20;99.90;;;;;;5142131;27;20198;-66
2021/07/26 11:11:41;;;;;;;5.03;3.67;;;27.20;99.90;;;;;;5137370;27;20201;-67
2021/07/26 11:14:29;;;;;;;4.82;3.60;;;27.10;99.90;;;;;;5132412;27;20286;-66
2021/07/26 11:17:19;;;;;;;7.85;3.85;;;26.90;99.90;;;;;;5134138;27;20198;-67
2021/07/26 11:20:08;;;;;;;4.35;3.45;;;27.10;99.90;;;;;;5132456;27;20319;-66
2021/07/26 11:22:59;;;;;;;4.10;3.70;;;27.20;99.90;;;;;;5146477;27;20567;-66
2021/07/26 11:25:47;;;;;;;7.32;4.10;;;27.10;99.90;;;;;;5145893;27;20194;-67
2021/07/26 11:28:38;;;;;;;7.40;4.15;;;27.10;99.90;;;;;;5145339;27;20193;-67
2021/07/26 11:31:27;;;;;;;7.15;4.70;;;26.70;99.90;;;;;;5151378;27;20196;-67
2021/07/26 11:34:16;;;;;;;7.70;5.00;;;26.50;99.90;;;;;;5135729;27;20327;-67
2021/07/26 11:37:07;;;;;;;8.60;5.03;;;26.60;99.90;;;;;;5134469;27;20195;-67
2021/07/26 11:39:55;;;;;;;6.30;4.68;;;26.40;99.90;;;;;;5149145;27;20208;-67
2021/07/26 11:42:45;;;;;;;7.93;5.18;;;26.40;99.90;;;;;;5131185;27;20267;-67
2021/07/26 11:45:33;;;;;;;7.85;5.38;;;26.80;99.90;;;;;;5149495;27;20218;-66
2021/07/26 11:48:27;;;;;;;9.43;5.47;;;27.00;99.90;;;;;;5149977;27;20225;-66
2021/07/26 11:51:33;;;;;;;7.75;5.68;;;27.10;99.90;;;;;;5145070;27;20280;-66
2021/07/26 11:54:26;;;;;;;8.40;5.97;;;27.50;99.90;;;;;;5132045;27;20225;-66
2021/07/26 11:57:14;;;;;;;6.57;5.28;;;27.40;99.90;;;;;;5138678;27;20194;-66
2021/07/26 12:00:05;;;;;;;7.95;5.88;;;27.70;99.90;;;;;;5134764;27;20186;-66
2021/07/26 12:02:53;;;;;;;9.52;6.22;;;27.50;99.90;;;;;;5151290;27;20649;-66
2021/07/26 12:05:40;;;;;;;9.27;5.88;;;27.40;99.90;;;;;;5135680;27;20194;-66
2021/07/26 12:08:29;;;;;;;9.02;6.65;;;27.30;99.90;;;;;;5143538;27;20233;-66
2021/07/26 12:11:18;;;;;;;8.45;6.70;;;27.20;99.90;;;;;;5147906;27;20580;-66
2021/07/26 12:14:38;;;;;;;9.23;6.07;;;27.20;99.90;;;;;;5136076;27;20202;-66
2021/07/26 12:17:26;;;;;;;8.15;6.10;;;28.00;99.90;;;;;;5139368;27;20918;-66
2021/07/26 12:20:21;;;;;;;7.25;5.88;;;28.50;99.90;;;;;;5136537;27;20278;-66
2021/07/26 12:23:14;;;;;;;9.68;6.32;;;28.40;99.90;;;;;;5140755;27;20576;-67
2021/07/26 12:26:09;;;;;;;10.50;6.43;;;28.20;99.90;;;;;;5148176;27;20221;-67
2021/07/26 12:28:58;;;;;;;7.80;6.22;;;28.30;99.90;;;;;;5136145;27;20278;-66
2021/07/26 12:31:46;;;;;;;10.48;7.10;;;28.20;99.90;;;;;;5132023;27;20669;-67
2021/07/26 12:34:34;;;;;;;8.55;6.75;;;28.40;99.90;;;;;;5142666;27;20962;-66
2021/07/26 12:37:21;;;;;;;14.57;6.32;;;28.50;99.90;;;;;;5142400;27;20856;-66
2021/07/26 12:40:13;;;;;;;8.13;5.90;;;28.50;99.90;;;;;;5136940;27;20244;-66
2021/07/26 12:43:10;;;;;;;9.48;6.10;;;28.90;99.90;;;;;;5135411;27;20205;-66
2021/07/26 12:45:59;;;;;;;9.25;6.10;;;29.20;99.90;;;;;;5142529;27;20684;-67
2021/07/26 12:48:47;;;;;;;9.07;5.90;;;28.80;99.90;;;;;;5150307;27;20225;-66
2021/07/26 12:51:35;;;;;;;9.50;6.07;;;28.40;99.90;;;;;;5154338;27;20652;-66
2021/07/26 12:54:22;;;;;;;10.73;6.53;;;28.40;99.90;;;;;;5153364;27;20238;-66
2021/07/26 12:57:10;;;;;;;6.43;5.60;;;29.00;99.90;;;;;;5133091;27;20297;-67
2021/07/26 12:59:59;;;;;;;10.65;5.70;;;29.10;99.90;;;;;;5135259;27;20286;-66
2021/07/26 13:02:47;;;;;;;7.20;5.60;;;28.70;99.90;;;;;;5142986;27;20560;-66
2021/07/26 13:05:34;;;;;;;11.43;6.05;;;28.90;99.90;;;;;;5134280;27;20274;-66
2021/07/26 13:08:22;;;;;;;7.68;5.78;;;28.80;99.90;;;;;;5145550;27;20210;-67
2021/07/26 13:11:09;;;;;;;8.70;5.25;;;29.40;99.90;;;;;;5153352;27;20286;-66
2021/07/26 13:13:57;;;;;;;7.72;5.53;;;29.20;99.90;;;;;;5145785;27;20198;-66
2021/07/26 13:16:46;;;;;;;10.25;6.50;;;29.00;99.90;;;;;;5154613;27;20201;-66
2021/07/26 13:19:34;;;;;;;8.35;6.03;;;29.10;99.90;;;;;;5154579;27;20526;-66
2021/07/26 13:22:22;;;;;;;8.18;5.78;;;29.50;99.90;;;;;;5140841;27;20202;-66
2021/07/26 13:25:10;;;;;;;7.47;5.28;;;30.00;99.90;;;;;;5133745;27;20202;-66
2021/07/26 13:28:00;;;;;;;7.00;5.20;;;30.10;99.90;;;;;;5134102;27;20210;-66
2021/07/26 13:30:47;;;;;;;6.45;4.90;;;30.20;99.90;;;;;;5145951;27;20209;-66
2021/07/26 13:33:36;;;;;;;6.68;5.10;;;30.10;99.90;;;;;;5134981;27;20202;-66
2021/07/26 13:36:24;;;;;;;10.07;5.40;;;30.50;99.90;;;;;;5145038;27;20194;-66
2021/07/26 13:39:14;;;;;;;10.90;4.60;;;30.80;99.90;;;;;;5133767;27;20195;-66
2021/07/26 13:42:02;;;;;;;8.57;5.25;;;30.60;99.90;;;;;;5140597;27;20316;-66
2021/07/26 13:44:50;;;;;;;9.15;5.03;;;30.70;99.90;;;;;;5134480;27;20202;-66
2021/07/26 13:47:38;;;;;;;6.15;5.05;;;30.10;99.90;;;;;;5154011;27;20209;-67
2021/07/26 13:50:27;;;;;;;7.10;5.20;;;29.90;99.90;;;;;;5135761;27;20213;-67
2021/07/26 13:53:15;;;;;;;7.65;5.57;;;30.00;99.90;;;;;;5154422;27;20692;-66
2021/07/26 13:56:03;;;;;;;8.07;5.57;;;29.70;99.90;;;;;;5134919;27;20220;-66
2021/07/26 13:58:50;;;;;;;6.88;5.80;;;29.60;99.90;;;;;;5133641;27;20198;-66
2021/07/26 14:01:38;;;;;;;12.18;6.40;;;29.60;99.90;;;;;;5135485;27;20197;-66
2021/07/26 14:04:26;;;;;;;9.88;6.10;;;29.60;99.90;;;;;;5151639;27;20194;-66
2021/07/26 14:07:16;;;;;;;8.65;5.40;;;29.50;99.90;;;;;;5153079;27;20216;-66
2021/07/26 14:10:04;;;;;;;7.85;5.90;;;29.30;99.90;;;;;;5144173;27;20652;-67
2021/07/26 14:12:52;;;;;;;7.00;5.65;;;29.20;99.90;;;;;;5141886;27;20580;-66
2021/07/26 14:15:40;;;;;;;10.35;5.97;;;29.20;99.90;;;;;;5135087;27;20194;-67
2021/07/26 14:18:29;;;;;;;8.70;5.97;;;29.30;99.90;;;;;;5132680;27;20298;-67
2021/07/26 14:21:16;;;;;;;11.35;6.03;;;29.30;99.90;;;;;;5143106;27;20560;-67
2021/07/26 14:24:06;;;;;;;13.98;6.15;;;29.40;99.90;;;;;;5152813;27;20190;-67
2021/07/26 14:26:54;;;;;;;9.73;5.80;;;29.40;99.90;;;;;;5142249;27;20206;-66
2021/07/26 14:29:42;;;;;;;8.32;6.00;;;29.40;99.90;;;;;;5139253;27;20205;-66
2021/07/26 14:32:29;;;;;;;7.88;6.38;;;29.40;99.90;;;;;;5137584;27;20557;-66
2021/07/26 14:35:17;;;;;;;12.23;6.10;;;29.50;99.90;;;;;;5147890;27;20224;-67
2021/07/26 14:38:06;;;;;;;11.18;5.85;;;30.10;99.90;;;;;;5132609;27;20535;-67